Aérodrome :
LOGIN :

S'inscrire | Disclaimer

   EN    FR    IT 

 










Légende :    VFR   VFR Marginal   IFR   IFR Intensif   IFR Très Intensif
Visi : 
Plafond : 
>= 8 km
>= 3000ft
5 à 8 km
1000 à 3000 ft
1500m à 5 km
500 à 1000 ft
800 à 1500m
200 à 500 ft
< 800m
< 200 ft
Symboles :   Orages  Brouillard  Fortes neiges  Fortes précipitations  Vent > 20 kt
SIGMETs :   Divers  Orages  Givrage  Turbulence  Onde Orograph.  Cendres Volcan.






- Altitude de l'aérodrome : 20 ft
- Code IATA : DLM


LTBS - Dalaman

DERNIER METAR :
  • 061050Z 04004KT CAVOK 17/04 Q1020 NOSIG

METARs EXPIRÉS :
  • 061020Z 01005KT 340V040 CAVOK 16/03 Q1020 NOSIG RMK RWY19 33006KT 290V360
  • 060950Z 02006KT 350V050 CAVOK 16/02 Q1020 NOSIG RMK RWY19 34006KT 310V010
  • 060920Z 01007KT CAVOK 15/02 Q1021 NOSIG RMK RWY19 33007KT 300V360
  • 060850Z 02007KT CAVOK 14/01 Q1021 NOSIG RMK RWY19 33008KT
  • 060820Z 02007KT CAVOK 13/00 Q1021 NOSIG RMK RWY19 33008KT
  • 060750Z 02007KT CAVOK 13/01 Q1022 NOSIG RMK RWY19 33009KT

TAF TAF LTBS
Valide du 06 à 06h jusqu'au 07 à 06h UTC


060440Z 0606/0706 VRB02KT CAVOK



MET'MAP, la Météo Aéronautique d'un coup d'oeil ! - Copyright ORBIFLY Décembre 2007 - Disclaimer

ORBIFLY MET'MAP TEAM :

Programmation & Développement : Alexandra Zaïnal
Sur une idée originale de : Baudouin d'Aumeries
Assistance à la programmation : Marc-Olivier Méhu
Soutien technique & logistique : Manuel Goepfert

Contact : metmap@orbifly.com




SOURCES & CREDITS :

   NOAA